Penn Run, Pennsylvania
Current Conditions -  °F | °C
As of 3:15 PM on Wednesday 26 Nov 2014 (Local Time) from KIDI Reporting Station
Haze Haze  
Wind Chill: 34°   Ceiling: 1900
Heat Index: 34°   Visibility: 1.2mi
Dew Point: 32°   Wind: 3mph
Humidity: 93%   Direction: 60°ENE
Pressure: 30.02"   Gusts: NA
Location:  40.62°N, 79.01°W
Report Text: KIDI 262015Z AUTO 06003KT 1 1/4SM BR SCT007 SCT013 OVC019 01/M00 A3002 RMK A01
Loading
Personal Weather Stations






























Interactive Weather Map New forecast layout! Learn more

10-Day Weather Forecast

Advertisements
Track Severe Weather on mobile